PST,Max TemperatureF,Mean TemperatureF,Min TemperatureF,Max Dew PointF,MeanDew PointF,Min DewpointF,Max Humidity, Mean Humidity, Min Humidity, Max Sea Level PressureIn, Mean Sea Level PressureIn, Min Sea Level PressureIn, Max VisibilityMiles, Mean VisibilityMiles, Min VisibilityMiles, Max Wind SpeedMPH, Mean Wind SpeedMPH, Max Gust SpeedMPH,PrecipitationIn, CloudCover, Events, WindDirDegrees
2013-1-1,41,33,24,29,26,24,100,80,59,30.45,30.40,30.35,10,10,5,10,3,13,0.00,0,,347
2013-1-2,44,34,24,27,24,22,85,67,49,30.31,30.26,30.20,10,10,10,13,4,17,0.00,0,,335
2013-1-3,44,30,21,36,25,21,91,70,42,30.25,30.19,30.15,10,10,10,8,1,,0.00,4,,197
2013-1-4,49,42,34,43,39,34,100,85,70,30.33,30.24,30.18,10,6,0,16,5,20,0.00,7,Fog,340
2013-1-5,39,37,34,36,33,29,100,88,75,30.22,30.19,30.18,10,7,0,8,1,9,0.01,8,Fog-Rain,344
2013-1-6,48,42,36,43,39,36,100,91,82,30.25,30.18,30.09,10,5,1,17,4,25,0.09,8,Rain,167
2013-1-7,54,50,45,50,46,42,100,89,77,30.22,30.13,30.04,10,9,2,23,13,30,0.11,8,Rain,185
2013-1-8,54,50,46,49,47,45,93,85,77,30.21,30.10,29.93,10,9,4,23,11,29,T,7,Rain,172
2013-1-9,51,42,32,45,38,32,100,90,80,30.01,29.93,29.78,10,9,3,28,8,38,0.29,6,Rain,197
2013-1-10,41,38,34,37,35,33,100,93,85,30.12,30.07,30.00,10,10,6,10,4,13,0.03,7,Rain,174
2013-1-11,39,32,25,32,29,25,100,82,64,30.32,30.24,30.12,10,6,0,9,2,10,T,2,Fog,150
2013-1-12,31,26,20,30,26,19,100,96,92,30.41,30.36,30.31,7,2,0,7,2,8,0.00,6,Fog,8
2013-1-13,28,28,27,28,27,25,100,93,85,30.51,30.45,30.40,10,3,1,7,2,9,T,8,,17
2013-1-14,35,31,26,33,29,25,100,91,82,30.58,30.55,30.51,10,8,3,8,3,,0.00,8,,171
2013-1-15,39,36,33,36,33,30,100,93,85,30.66,30.63,30.56,10,7,2,10,4,12,0.00,8,,13
2013-1-16,35,34,32,34,33,32,100,96,92,30.66,30.56,30.50,9,2,0,9,4,10,0.00,8,Fog,18
2013-1-17,39,35,30,34,32,30,100,91,82,30.50,30.41,30.32,9,3,0,8,3,9,0.00,7,Fog,360
2013-1-18,33,31,29,32,30,28,100,96,92,30.34,30.31,30.29,3,1,0,5,0,6,0.00,8,Fog,258
2013-1-19,31,29,27,31,29,27,100,96,92,30.36,30.33,30.30,2,0,0,5,0,6,T,8,Fog-Snow,80
2013-1-20,32,30,28,31,29,28,100,96,92,30.37,30.31,30.26,2,1,0,6,1,7,0.00,8,Fog,73
2013-1-21,31,30,28,31,29,27,100,96,92,30.29,30.22,30.17,4,1,0,6,1,8,T,8,Fog-Snow,86
2013-1-22,37,32,26,32,28,26,100,91,82,30.18,30.07,29.95,8,3,0,7,3,9,T,4,Fog-Snow,102
2013-1-23,37,35,32,36,33,29,100,88,75,30.21,30.03,29.92,9,5,2,8,2,9,0.23,7,Rain,149
2013-1-24,46,40,34,45,38,35,100,96,92,30.24,30.17,30.13,10,3,0,14,3,17,0.23,8,Fog-Rain,103
2013-1-25,53,45,36,49,46,37,100,92,83,30.13,30.04,29.98,10,8,2,13,7,15,0.11,6,Rain,177
2013-1-26,47,42,37,42,39,36,100,88,76,30.11,30.02,29.96,10,9,5,17,7,22,0.27,7,Rain,176
2013-1-27,43,39,35,40,38,35,100,95,89,30.17,30.11,30.07,10,10,8,15,7,20,0.14,8,Rain,177
2013-1-28,45,42,38,43,41,38,100,95,89,30.25,30.19,30.12,10,10,9,14,7,18,0.07,8,Rain,180
2013-1-29,48,46,43,45,43,40,100,91,82,30.50,30.41,30.25,10,10,9,14,9,18,0.02,8,Rain,180
2013-1-30,50,47,43,48,44,41,100,93,86,30.50,30.47,30.45,10,9,3,21,11,26,0.03,8,Rain,170
2013-1-31,55,49,43,46,44,42,100,81,61,30.46,30.41,30.34,10,8,1,8,4,13,0.00,8,,165